createdAt,value
2019-01-27T00:02:37.112Z,1.90
2019-01-27T00:05:27.933Z,1.80
2019-01-27T00:08:17.971Z,1.70
2019-01-27T00:11:08.351Z,1.60
2019-01-27T00:13:58.992Z,1.50
2019-01-27T00:16:49.814Z,1.40
2019-01-27T00:19:40.051Z,1.20
2019-01-27T00:22:30.728Z,1.10
2019-01-27T00:25:21.592Z,1.00
2019-01-27T00:28:11.652Z,0.90
2019-01-27T00:31:01.889Z,0.80
2019-01-27T00:33:52.409Z,0.70
2019-01-27T00:36:43.144Z,0.70
2019-01-27T00:39:33.713Z,0.60
2019-01-27T00:42:25.592Z,0.60
2019-01-27T00:45:17.231Z,0.50
2019-01-27T00:48:07.934Z,0.50
2019-01-27T00:50:58.812Z,0.50
2019-01-27T00:53:49.530Z,0.60
2019-01-27T00:56:39.712Z,0.60
2019-01-27T00:59:29.173Z,0.70
2019-01-27T01:02:20.112Z,0.80
2019-01-27T01:05:11.173Z,0.80
2019-01-27T01:08:02.491Z,0.80
2019-01-27T01:10:53.071Z,0.80
2019-01-27T01:13:44.730Z,0.70
2019-01-27T01:16:35.793Z,0.70
2019-01-27T01:19:26.232Z,0.70
2019-01-27T01:22:17.392Z,0.60
2019-01-27T01:25:10.972Z,0.60
2019-01-27T01:28:01.391Z,0.50
2019-01-27T01:30:51.552Z,0.50
2019-01-27T01:33:42.493Z,0.50
2019-01-27T01:36:33.573Z,0.50
2019-01-27T01:39:24.075Z,0.50
2019-01-27T01:42:14.973Z,0.50
2019-01-27T01:45:09.713Z,0.50
2019-01-27T01:48:00.255Z,0.40
2019-01-27T01:50:50.849Z,0.40
2019-01-27T01:53:42.351Z,0.30
2019-01-27T01:56:32.894Z,0.30
2019-01-27T01:59:23.331Z,0.30
2019-01-27T02:02:13.733Z,0.20
2019-01-27T02:05:06.832Z,0.10
2019-01-27T02:07:57.051Z,0.10
2019-01-27T02:10:48.272Z,0.00
2019-01-27T02:13:38.352Z,0.00
2019-01-27T02:16:28.651Z,0.00
2019-01-27T02:19:18.992Z,-0.10
2019-01-27T02:22:10.692Z,-0.10
2019-01-27T02:25:00.334Z,-0.20
2019-01-27T02:27:50.751Z,-0.20
2019-01-27T02:30:41.713Z,-0.20
2019-01-27T02:33:32.273Z,-0.30
2019-01-27T02:36:21.962Z,-0.30
2019-01-27T02:39:12.083Z,-0.30
2019-01-27T02:42:02.333Z,-0.30
2019-01-27T02:44:53.073Z,-0.30
2019-01-27T02:47:43.912Z,-0.20
2019-01-27T02:50:34.253Z,-0.20
2019-01-27T02:53:25.050Z,-0.20
2019-01-27T02:56:16.052Z,-0.20
2019-01-27T03:02:31.623Z,-0.20
2019-01-27T03:05:56.619Z,-0.20
2019-01-27T03:08:53.860Z,-0.20
2019-01-27T03:11:50.900Z,-0.20
2019-01-27T03:14:41.541Z,-0.20
2019-01-27T03:17:32.163Z,-0.30
2019-01-27T03:20:23.299Z,-0.30
2019-01-27T03:23:13.621Z,-0.30
2019-01-27T03:26:04.121Z,-0.30
2019-01-27T03:28:58.844Z,-0.30
2019-01-27T03:31:50.502Z,-0.30
2019-01-27T03:34:40.901Z,-0.40
2019-01-27T03:37:31.541Z,-0.40
2019-01-27T03:40:22.020Z,-0.40
2019-01-27T03:43:12.299Z,-0.50
2019-01-27T03:46:02.520Z,-0.50
2019-01-27T03:48:53.059Z,-0.50
2019-01-27T03:51:43.960Z,-0.60
2019-01-27T03:54:34.361Z,-0.50
2019-01-27T03:57:24.740Z,-0.60
2019-01-27T04:00:18.499Z,-0.60
2019-01-27T04:03:09.061Z,-0.70
2019-01-27T04:05:59.402Z,-0.80
2019-01-27T04:08:50.822Z,-0.90
2019-01-27T04:11:42.918Z,-1.00
2019-01-27T04:14:33.079Z,-1.00
2019-01-27T04:17:23.213Z,-1.10
2019-01-27T04:20:16.265Z,-1.20
2019-01-27T04:23:07.141Z,-1.20
2019-01-27T04:25:57.934Z,-1.30
2019-01-27T04:28:48.453Z,-1.30
2019-01-27T04:31:39.142Z,-1.40
2019-01-27T04:34:29.599Z,-1.40
2019-01-27T04:37:19.765Z,-1.50
2019-01-27T04:40:14.020Z,-1.50
2019-01-27T04:43:05.637Z,-1.60
2019-01-27T04:45:56.441Z,-1.60
2019-01-27T04:48:47.625Z,-1.60
2019-01-27T04:51:38.494Z,-1.70
2019-01-27T04:54:29.088Z,-1.80
2019-01-27T04:57:20.260Z,-1.80
2019-01-27T05:00:13.740Z,-1.90
2019-01-27T05:03:22.640Z,-1.90
2019-01-27T05:06:14.020Z,-2.00
2019-01-27T05:09:07.781Z,-2.00
2019-01-27T05:11:58.384Z,-2.10
2019-01-27T05:14:48.557Z,-2.10
2019-01-27T05:17:38.821Z,-2.10
2019-01-27T05:20:29.242Z,-2.20
2019-01-27T05:23:19.940Z,-2.20
2019-01-27T05:26:10.179Z,-2.30
2019-01-27T05:29:00.740Z,-2.30
2019-01-27T05:31:51.300Z,-2.30
2019-01-27T05:34:41.859Z,-2.40
2019-01-27T05:37:33.059Z,-2.40
2019-01-27T05:40:25.219Z,-2.40
2019-01-27T05:43:16.087Z,-2.50
2019-01-27T05:46:06.762Z,-2.60
2019-01-27T05:48:57.220Z,-2.60
2019-01-27T05:51:48.237Z,-2.70
2019-01-27T05:54:38.363Z,-2.70
2019-01-27T05:57:29.556Z,-2.80
2019-01-27T06:00:27.519Z,-2.80
2019-01-27T06:03:18.620Z,-2.80
2019-01-27T06:06:08.987Z,-2.90
2019-01-27T06:08:59.102Z,-2.90
2019-01-27T06:11:49.518Z,-3.00
2019-01-27T06:14:40.581Z,-3.00
2019-01-27T06:17:31.001Z,-3.00
2019-01-27T06:20:22.341Z,-3.10
2019-01-27T06:23:12.701Z,-3.10
2019-01-27T06:26:03.242Z,-3.10
2019-01-27T06:28:54.420Z,-3.20
2019-01-27T06:31:44.084Z,-3.20
2019-01-27T06:34:35.140Z,-3.20
2019-01-27T06:37:25.384Z,-3.30
2019-01-27T06:40:16.260Z,-3.30
2019-01-27T06:43:07.140Z,-3.30
2019-01-27T06:45:57.700Z,-3.30
2019-01-27T06:48:48.900Z,-3.30
2019-01-27T06:51:40.120Z,-3.30
2019-01-27T06:54:31.040Z,-3.30
2019-01-27T06:57:21.580Z,-3.30
2019-01-27T07:00:53.035Z,-3.20
2019-01-27T07:04:05.121Z,-3.20
2019-01-27T07:07:17.379Z,-3.20
2019-01-27T07:10:28.460Z,-3.10
2019-01-27T07:13:37.580Z,-3.10
2019-01-27T07:16:51.501Z,-3.00
2019-01-27T07:19:55.941Z,-3.00
2019-01-27T07:22:59.483Z,-2.90
2019-01-27T07:26:01.341Z,-2.90
2019-01-27T07:29:01.441Z,-2.80
2019-01-27T07:32:11.043Z,-2.70
2019-01-27T07:35:18.309Z,-2.50
2019-01-27T07:38:23.227Z,-2.40
2019-01-27T07:41:35.323Z,-2.20
2019-01-27T07:44:37.342Z,-2.10
2019-01-27T07:47:51.942Z,-1.90
2019-01-27T07:50:50.980Z,-1.80
2019-01-27T07:54:06.343Z,-1.60
2019-01-27T07:57:28.339Z,-1.40
2019-01-27T08:00:26.500Z,-1.10
2019-01-27T08:03:35.942Z,-0.80
2019-01-27T08:06:55.321Z,-0.50
2019-01-27T08:10:13.702Z,-0.10
2019-01-27T08:13:22.510Z,0.30
2019-01-27T08:16:38.161Z,0.70
2019-01-27T08:19:39.401Z,1.00
2019-01-27T08:22:48.694Z,1.20
2019-01-27T08:25:56.800Z,1.40
2019-01-27T08:28:56.600Z,1.60
2019-01-27T08:31:57.421Z,1.70
2019-01-27T08:34:54.760Z,1.90
2019-01-27T08:38:13.180Z,2.20
2019-01-27T08:41:22.900Z,2.50
2019-01-27T08:44:38.240Z,2.60
2019-01-27T08:47:28.760Z,2.80
2019-01-27T08:50:19.123Z,2.80
2019-01-27T08:53:10.360Z,2.90
2019-01-27T08:56:01.320Z,3.00
2019-01-27T08:58:52.140Z,3.00
2019-01-27T09:02:00.724Z,3.10
2019-01-27T09:04:58.883Z,3.20
2019-01-27T09:07:57.828Z,2.90
2019-01-27T09:11:07.474Z,2.60
2019-01-27T09:14:17.519Z,2.40
2019-01-27T09:17:39.520Z,2.20
2019-01-27T09:20:42.513Z,2.30
2019-01-27T09:23:47.288Z,2.30
2019-01-27T09:26:46.348Z,2.50
2019-01-27T09:29:55.260Z,2.50
2019-01-27T09:33:11.967Z,2.60
2019-01-27T09:36:21.609Z,2.50
2019-01-27T09:39:37.385Z,2.40
2019-01-27T09:43:01.715Z,2.50
2019-01-27T09:46:11.559Z,2.50
2019-01-27T09:49:22.502Z,2.50
2019-01-27T09:52:36.629Z,2.60
2019-01-27T09:55:41.404Z,2.80
2019-01-27T09:58:50.081Z,2.90
2019-01-27T10:01:58.446Z,3.10
2019-01-27T10:04:55.001Z,3.30
2019-01-27T10:08:02.944Z,3.50
2019-01-27T10:11:11.140Z,3.90
2019-01-27T10:14:20.736Z,3.80
2019-01-27T10:17:34.442Z,3.70
2019-01-27T10:20:46.844Z,3.60
2019-01-27T10:24:03.738Z,4.00
2019-01-27T10:27:16.938Z,4.60
2019-01-27T10:30:40.702Z,5.00
2019-01-27T10:33:48.821Z,5.20
2019-01-27T10:37:02.703Z,5.20
2019-01-27T10:40:11.263Z,5.40
2019-01-27T10:43:30.324Z,5.30
2019-01-27T10:46:29.741Z,5.10
2019-01-27T10:49:36.605Z,4.90
2019-01-27T10:52:52.860Z,4.90
2019-01-27T10:56:08.001Z,4.70
2019-01-27T10:59:04.894Z,4.70
2019-01-27T11:02:12.622Z,4.60
2019-01-27T11:05:15.145Z,4.70
2019-01-27T11:08:24.592Z,4.50
2019-01-27T11:11:52.262Z,4.60
2019-01-27T11:15:08.823Z,4.40
2019-01-27T11:18:24.000Z,4.30
2019-01-27T11:21:39.328Z,4.30
2019-01-27T11:24:43.809Z,4.30
2019-01-27T11:27:55.480Z,4.20
2019-01-27T11:31:00.305Z,4.10
2019-01-27T11:34:02.260Z,4.20
2019-01-27T11:37:23.528Z,4.30
2019-01-27T11:40:25.061Z,4.40
2019-01-27T11:43:34.202Z,4.50
2019-01-27T11:46:45.381Z,4.60
2019-01-27T11:50:11.449Z,5.00
2019-01-27T11:53:05.540Z,5.20
2019-01-27T11:55:56.422Z,5.70
2019-01-27T11:58:47.621Z,6.40
2019-01-27T12:01:38.821Z,7.10
2019-01-27T12:04:29.388Z,7.40
2019-01-27T12:07:20.128Z,7.30
2019-01-27T12:10:14.260Z,7.40
2019-01-27T12:13:06.820Z,7.90
2019-01-27T12:15:57.700Z,8.40
2019-01-27T12:18:48.139Z,9.10
2019-01-27T12:21:39.802Z,10.00
2019-01-27T12:24:31.203Z,10.60
2019-01-27T12:27:21.662Z,11.20
2019-01-27T12:30:15.321Z,11.70
2019-01-27T12:33:06.540Z,12.30
2019-01-27T12:35:57.701Z,12.60
2019-01-27T12:38:47.960Z,13.10
2019-01-27T12:41:38.820Z,13.20
2019-01-27T12:44:29.707Z,13.20
2019-01-27T12:47:20.280Z,12.90
2019-01-27T12:50:13.380Z,11.80
2019-01-27T12:53:04.261Z,10.60
2019-01-27T12:55:54.840Z,9.80
2019-01-27T12:58:45.684Z,9.10
2019-01-27T13:01:36.140Z,8.30
2019-01-27T13:04:27.060Z,7.70
2019-01-27T13:07:17.382Z,7.20
2019-01-27T13:10:10.821Z,6.60
2019-01-27T13:13:01.702Z,6.30
2019-01-27T13:15:52.921Z,5.90
2019-01-27T13:18:43.621Z,5.60
2019-01-27T13:21:33.740Z,5.30
2019-01-27T13:24:24.260Z,5.10
2019-01-27T13:27:14.860Z,5.00
2019-01-27T13:30:06.343Z,4.90
2019-01-27T13:32:57.635Z,4.80
2019-01-27T13:35:47.901Z,4.70
2019-01-27T13:38:39.003Z,4.70
2019-01-27T13:41:30.501Z,4.70
2019-01-27T13:44:21.537Z,4.80
2019-01-27T13:47:12.601Z,4.70
2019-01-27T13:50:02.841Z,4.50
2019-01-27T13:52:54.022Z,4.50
2019-01-27T13:55:44.964Z,4.50
2019-01-27T13:58:34.941Z,4.40
2019-01-27T14:01:26.020Z,4.40
2019-01-27T14:04:16.561Z,4.40
2019-01-27T14:07:08.420Z,4.40
2019-01-27T14:09:59.164Z,4.40
2019-01-27T14:12:49.881Z,4.40
2019-01-27T14:15:40.363Z,4.30
2019-01-27T14:18:30.959Z,4.20
2019-01-27T14:21:21.540Z,4.20
2019-01-27T14:24:12.419Z,4.10
2019-01-27T14:27:03.480Z,4.00
2019-01-27T14:29:54.448Z,3.90
2019-01-27T14:32:44.860Z,3.80
2019-01-27T14:35:35.207Z,3.70
2019-01-27T14:38:25.540Z,3.60
2019-01-27T14:41:15.585Z,3.50
2019-01-27T14:44:07.543Z,3.40
2019-01-27T14:46:58.281Z,3.20
2019-01-27T14:49:48.321Z,3.10
2019-01-27T14:52:41.121Z,3.10
2019-01-27T14:55:37.761Z,3.00
2019-01-27T14:58:29.441Z,3.00
2019-01-27T15:01:20.600Z,2.90
2019-01-27T15:04:11.201Z,2.80
2019-01-27T15:07:01.471Z,2.70
2019-01-27T15:09:51.960Z,2.60
2019-01-27T15:12:42.541Z,2.50
2019-01-27T15:15:33.363Z,2.30
2019-01-27T15:18:23.709Z,2.20
2019-01-27T15:21:27.301Z,2.10
2019-01-27T15:24:18.180Z,1.90
2019-01-27T15:27:08.283Z,1.80
2019-01-27T15:29:58.369Z,1.60
2019-01-27T15:32:49.380Z,1.50
2019-01-27T15:35:40.419Z,1.40
2019-01-27T15:38:30.824Z,1.30
2019-01-27T15:41:21.703Z,1.20
2019-01-27T15:44:12.061Z,1.10
2019-01-27T15:47:03.002Z,1.00
2019-01-27T15:49:53.660Z,0.90
2019-01-27T15:52:44.420Z,0.80
2019-01-27T15:55:43.399Z,0.60
2019-01-27T15:58:34.220Z,0.50
2019-01-27T16:01:25.720Z,0.40
2019-01-27T16:04:17.530Z,0.30
2019-01-27T16:07:09.242Z,0.10
2019-01-27T16:09:59.941Z,0.00
2019-01-27T16:12:51.163Z,-0.10
2019-01-27T16:15:42.001Z,-0.20
2019-01-27T16:18:41.349Z,-0.30
2019-01-27T16:21:32.120Z,-0.40
2019-01-27T16:24:30.040Z,-0.50
2019-01-27T16:27:20.099Z,-0.70
2019-01-27T16:30:33.931Z,-0.80
2019-01-27T16:33:38.040Z,-0.90
2019-01-27T16:36:28.961Z,-1.00
2019-01-27T16:39:19.628Z,-1.10
2019-01-27T16:42:09.756Z,-1.10
2019-01-27T16:45:00.252Z,-1.20
2019-01-27T16:47:52.580Z,-1.30
2019-01-27T16:50:43.459Z,-1.30
2019-01-27T16:53:34.946Z,-1.30
2019-01-27T16:56:25.540Z,-1.30
2019-01-27T16:59:17.402Z,-1.40
2019-01-27T17:02:08.899Z,-1.40
2019-01-27T17:04:59.263Z,-1.40
2019-01-27T17:07:49.709Z,-1.40
2019-01-27T17:10:39.860Z,-1.40
2019-01-27T17:13:30.500Z,-1.40
2019-01-27T17:16:22.026Z,-1.40
2019-01-27T17:19:13.615Z,-1.40
2019-01-27T17:22:04.022Z,-1.40
2019-01-27T17:24:54.981Z,-1.30
2019-01-27T17:27:47.281Z,-1.30
2019-01-27T17:30:38.682Z,-1.30
2019-01-27T17:33:29.081Z,-1.20
2019-01-27T17:36:19.080Z,-1.20
2019-01-27T17:39:11.392Z,-1.10
2019-01-27T17:42:02.281Z,-1.10
2019-01-27T17:44:52.442Z,-1.10
2019-01-27T17:47:43.820Z,-1.00
2019-01-27T17:50:33.405Z,-1.00
2019-01-27T17:53:24.821Z,-0.90
2019-01-27T17:56:15.301Z,-0.90
2019-01-27T17:59:24.438Z,-0.90
2019-01-27T18:02:40.323Z,-0.90
2019-01-27T18:05:43.992Z,-0.90
2019-01-27T18:08:48.283Z,-0.90
2019-01-27T18:11:43.603Z,-0.80
2019-01-27T18:14:37.702Z,-0.80
2019-01-27T18:17:29.290Z,-0.80
2019-01-27T18:20:20.422Z,-0.80
2019-01-27T18:23:10.677Z,-0.80
2019-01-27T18:26:00.776Z,-0.80
2019-01-27T18:28:51.917Z,-0.80
2019-01-27T18:31:42.927Z,-0.80
2019-01-27T18:34:33.900Z,-0.80
2019-01-27T18:37:25.081Z,-0.80
2019-01-27T18:40:15.976Z,-0.70
2019-01-27T18:43:06.691Z,-0.70
2019-01-27T18:45:57.274Z,-0.70
2019-01-27T18:48:47.956Z,-0.70
2019-01-27T18:51:38.520Z,-0.70
2019-01-27T18:54:53.200Z,-0.60
2019-01-27T18:58:05.520Z,-0.60
2019-01-27T19:01:15.504Z,-0.60
2019-01-27T19:04:21.703Z,-0.60
2019-01-27T19:07:43.701Z,-0.60
2019-01-27T19:10:52.172Z,-0.60
2019-01-27T19:14:00.921Z,-0.60
2019-01-27T19:17:16.240Z,-0.60
2019-01-27T19:20:18.181Z,-0.60
2019-01-27T19:23:19.440Z,-0.60
2019-01-27T19:26:26.181Z,-0.60
2019-01-27T19:29:41.340Z,-0.60
2019-01-27T19:32:59.863Z,-0.60
2019-01-27T19:36:03.161Z,-0.60
2019-01-27T19:39:27.705Z,-0.60
2019-01-27T19:42:42.641Z,-0.60
2019-01-27T19:45:52.680Z,-0.60
2019-01-27T19:49:08.741Z,-0.70
2019-01-27T19:52:18.680Z,-0.70
2019-01-27T19:55:27.292Z,-0.70
2019-01-27T19:58:46.794Z,-0.80
2019-01-27T20:01:50.369Z,-0.80
2019-01-27T20:05:11.802Z,-0.80
2019-01-27T20:08:24.262Z,-0.90
2019-01-27T20:11:32.881Z,-0.90
2019-01-27T20:14:40.903Z,-1.00
2019-01-27T20:17:44.582Z,-1.00
2019-01-27T20:20:54.598Z,-1.00
2019-01-27T20:24:13.515Z,-1.00
2019-01-27T20:27:28.768Z,-1.10
2019-01-27T20:30:41.981Z,-1.10
2019-01-27T20:33:52.442Z,-1.20
2019-01-27T20:36:51.777Z,-1.20
2019-01-27T20:39:36.260Z,-1.20
2019-01-27T20:42:45.159Z,-1.30
2019-01-27T20:45:31.480Z,-1.30
2019-01-27T20:48:34.841Z,-1.40
2019-01-27T20:51:21.726Z,-1.40
2019-01-27T20:54:15.600Z,-1.40
2019-01-27T20:56:57.079Z,-1.40
2019-01-27T20:59:43.822Z,-1.40
2019-01-27T21:02:29.720Z,-1.40
2019-01-27T21:05:26.640Z,-1.30
2019-01-27T21:08:20.741Z,-1.40
2019-01-27T21:11:18.421Z,-1.30
2019-01-27T21:14:24.034Z,-1.30
2019-01-27T21:17:03.260Z,-1.40
2019-01-27T21:19:43.320Z,-1.30
2019-01-27T21:22:16.583Z,-1.30
2019-01-27T21:24:49.239Z,-1.40
2019-01-27T21:27:21.879Z,-1.40
2019-01-27T21:29:53.758Z,-1.40
2019-01-27T21:32:26.579Z,-1.30
2019-01-27T21:35:02.011Z,-1.30
2019-01-27T21:37:36.900Z,-1.30
2019-01-27T21:40:16.100Z,-1.30
2019-01-27T21:42:48.677Z,-1.30
2019-01-27T21:45:21.358Z,-1.20
2019-01-27T21:47:53.581Z,-1.20
2019-01-27T21:50:26.541Z,-1.20
2019-01-27T21:53:00.600Z,-1.10
2019-01-27T21:55:33.380Z,-1.10
2019-01-27T21:58:07.939Z,-1.10
2019-01-27T22:00:42.532Z,-1.10
2019-01-27T22:03:15.252Z,-1.10
2019-01-27T22:05:47.620Z,-1.00
2019-01-27T22:08:20.440Z,-1.00
2019-01-27T22:10:53.379Z,-1.00
2019-01-27T22:13:25.758Z,-1.00
2019-01-27T22:15:58.141Z,-1.00
2019-01-27T22:18:30.579Z,-1.00
2019-01-27T22:21:02.900Z,-0.90
2019-01-27T22:23:36.265Z,-0.90
2019-01-27T22:26:08.899Z,-0.90
2019-01-27T22:28:41.541Z,-0.90
2019-01-27T22:31:13.724Z,-0.90
2019-01-27T22:33:46.266Z,-0.80
2019-01-27T22:36:18.459Z,-0.80
2019-01-27T22:38:51.142Z,-0.80
2019-01-27T22:41:23.780Z,-0.70
2019-01-27T22:43:56.480Z,-0.70
2019-01-27T22:46:28.576Z,-0.70
2019-01-27T22:49:01.060Z,-0.70
2019-01-27T22:51:34.339Z,-0.70
2019-01-27T22:54:07.607Z,-0.60
2019-01-27T22:56:40.259Z,-0.60
2019-01-27T22:59:12.298Z,-0.60
2019-01-27T23:01:44.960Z,-0.60
2019-01-27T23:04:17.659Z,-0.60
2019-01-27T23:06:50.720Z,-0.50
2019-01-27T23:09:23.767Z,-0.50
2019-01-27T23:11:56.420Z,-0.50
2019-01-27T23:14:30.382Z,-0.50
2019-01-27T23:17:03.200Z,-0.50
2019-01-27T23:19:35.580Z,-0.50
2019-01-27T23:22:10.021Z,-0.50
2019-01-27T23:24:42.475Z,-0.50
2019-01-27T23:27:15.270Z,-0.50
2019-01-27T23:29:47.721Z,-0.50
2019-01-27T23:32:20.144Z,-0.50
2019-01-27T23:34:52.908Z,-0.50
2019-01-27T23:37:26.205Z,-0.50
2019-01-27T23:39:58.699Z,-0.50
2019-01-27T23:42:31.558Z,-0.50
2019-01-27T23:45:04.131Z,-0.50
2019-01-27T23:47:37.679Z,-0.50
2019-01-27T23:50:10.061Z,-0.50
2019-01-27T23:52:42.881Z,-0.60
2019-01-27T23:55:15.181Z,-0.60
2019-01-27T23:57:47.783Z,-0.60
